sensor_id;sensor_type;location;lat;lon;timestamp;pressure;altitude;pressure_sealevel;temperature;humidity
12475;BME280;6302;42.624;23.334;2023-02-10T00:00:33;94918.38;;;-5.49;93.85
12475;BME280;6302;42.624;23.334;2023-02-10T00:03:01;94922.25;;;-5.51;93.94
12475;BME280;6302;42.624;23.334;2023-02-10T00:05:28;94915.00;;;-5.54;94.00
12475;BME280;6302;42.624;23.334;2023-02-10T00:07:55;94910.59;;;-5.59;94.27
12475;BME280;6302;42.624;23.334;2023-02-10T00:10:22;94916.53;;;-5.58;94.11
12475;BME280;6302;42.624;23.334;2023-02-10T00:12:48;94904.13;;;-5.61;94.27
12475;BME280;6302;42.624;23.334;2023-02-10T00:15:15;94916.50;;;-5.63;94.54
12475;BME280;6302;42.624;23.334;2023-02-10T00:17:42;94911.84;;;-5.66;94.86
12475;BME280;6302;42.624;23.334;2023-02-10T00:20:11;94911.56;;;-5.70;95.24
12475;BME280;6302;42.624;23.334;2023-02-10T00:22:37;94911.81;;;-5.71;95.17
12475;BME280;6302;42.624;23.334;2023-02-10T00:25:05;94914.63;;;-5.78;95.59
12475;BME280;6302;42.624;23.334;2023-02-10T00:27:32;94911.00;;;-5.77;95.96
12475;BME280;6302;42.624;23.334;2023-02-10T00:29:58;94910.22;;;-5.77;95.98
12475;BME280;6302;42.624;23.334;2023-02-10T00:32:25;94896.03;;;-5.80;96.06
12475;BME280;6302;42.624;23.334;2023-02-10T00:34:52;94902.75;;;-5.79;96.33
12475;BME280;6302;42.624;23.334;2023-02-10T00:37:20;94899.91;;;-5.77;96.08
12475;BME280;6302;42.624;23.334;2023-02-10T00:39:47;94889.53;;;-5.82;96.75
12475;BME280;6302;42.624;23.334;2023-02-10T00:42:13;94892.69;;;-5.80;96.66
12475;BME280;6302;42.624;23.334;2023-02-10T00:44:40;94894.22;;;-5.79;96.59
12475;BME280;6302;42.624;23.334;2023-02-10T00:47:07;94883.38;;;-5.81;96.71
12475;BME280;6302;42.624;23.334;2023-02-10T00:49:34;94888.53;;;-5.81;96.55
12475;BME280;6302;42.624;23.334;2023-02-10T00:52:00;94874.06;;;-5.87;96.56
12475;BME280;6302;42.624;23.334;2023-02-10T00:54:29;94886.97;;;-5.82;96.79
12475;BME280;6302;42.624;23.334;2023-02-10T00:56:56;94875.09;;;-5.83;96.54
12475;BME280;6302;42.624;23.334;2023-02-10T00:59:22;94881.56;;;-5.86;96.53
12475;BME280;6302;42.624;23.334;2023-02-10T01:01:49;94872.53;;;-5.88;97.00
12475;BME280;6302;42.624;23.334;2023-02-10T01:04:16;94876.66;;;-5.87;96.97
12475;BME280;6302;42.624;23.334;2023-02-10T01:06:43;94870.72;;;-5.88;97.41
12475;BME280;6302;42.624;23.334;2023-02-10T01:09:11;94867.38;;;-5.88;97.04
12475;BME280;6302;42.624;23.334;2023-02-10T01:11:39;94866.31;;;-5.82;97.13
12475;BME280;6302;42.624;23.334;2023-02-10T01:14:06;94873.81;;;-5.81;96.99
12475;BME280;6302;42.624;23.334;2023-02-10T01:16:33;94870.72;;;-5.83;96.60
12475;BME280;6302;42.624;23.334;2023-02-10T01:18:59;94861.16;;;-5.82;96.34
12475;BME280;6302;42.624;23.334;2023-02-10T01:21:27;94863.00;;;-5.88;96.64
12475;BME280;6302;42.624;23.334;2023-02-10T01:23:55;94856.25;;;-5.89;96.30
12475;BME280;6302;42.624;23.334;2023-02-10T01:26:22;94849.28;;;-5.93;96.54
12475;BME280;6302;42.624;23.334;2023-02-10T01:28:50;94850.56;;;-5.96;96.75
12475;BME280;6302;42.624;23.334;2023-02-10T01:31:19;94846.94;;;-6.00;96.92
12475;BME280;6302;42.624;23.334;2023-02-10T01:33:46;94848.72;;;-6.01;97.12
12475;BME280;6302;42.624;23.334;2023-02-10T01:36:15;94836.56;;;-6.05;97.05
12475;BME280;6302;42.624;23.334;2023-02-10T01:38:43;94847.16;;;-6.02;96.89
12475;BME280;6302;42.624;23.334;2023-02-10T01:41:11;94842.78;;;-6.01;96.68
12475;BME280;6302;42.624;23.334;2023-02-10T01:43:58;94847.66;;;-6.05;96.82
12475;BME280;6302;42.624;23.334;2023-02-10T01:46:25;94839.88;;;-6.10;97.02
12475;BME280;6302;42.624;23.334;2023-02-10T01:48:52;94844.28;;;-6.10;96.88
12475;BME280;6302;42.624;23.334;2023-02-10T01:51:24;94833.19;;;-6.11;96.94
12475;BME280;6302;42.624;23.334;2023-02-10T01:53:54;94837.31;;;-6.15;97.58
12475;BME280;6302;42.624;23.334;2023-02-10T01:56:21;94828.00;;;-6.16;97.98
12475;BME280;6302;42.624;23.334;2023-02-10T01:58:48;94818.69;;;-6.17;97.60
12475;BME280;6302;42.624;23.334;2023-02-10T02:01:17;94817.94;;;-6.17;97.93
12475;BME280;6302;42.624;23.334;2023-02-10T02:03:44;94823.38;;;-6.14;98.35
12475;BME280;6302;42.624;23.334;2023-02-10T02:06:11;94809.69;;;-6.14;98.11
12475;BME280;6302;42.624;23.334;2023-02-10T02:08:38;94808.66;;;-6.13;98.34
12475;BME280;6302;42.624;23.334;2023-02-10T02:11:16;94812.25;;;-6.14;98.15
12475;BME280;6302;42.624;23.334;2023-02-10T02:14:09;94801.72;;;-6.13;98.46
12475;BME280;6302;42.624;23.334;2023-02-10T02:16:46;94799.13;;;-6.13;98.28
12475;BME280;6302;42.624;23.334;2023-02-10T02:22:57;94796.78;;;-6.14;98.33
12475;BME280;6302;42.624;23.334;2023-02-10T02:25:40;94791.38;;;-6.13;98.92
12475;BME280;6302;42.624;23.334;2023-02-10T02:28:23;94792.41;;;-6.09;98.90
12475;BME280;6302;42.624;23.334;2023-02-10T02:33:56;94802.19;;;-6.16;99.88
12475;BME280;6302;42.624;23.334;2023-02-10T02:36:27;94805.56;;;-6.15;99.90
12475;BME280;6302;42.624;23.334;2023-02-10T02:38:59;94801.41;;;-6.16;99.80
12475;BME280;6302;42.624;23.334;2023-02-10T02:41:26;94806.34;;;-6.15;99.89
12475;BME280;6302;42.624;23.334;2023-02-10T02:43:54;94800.13;;;-6.19;99.97
12475;BME280;6302;42.624;23.334;2023-02-10T02:46:28;94797.78;;;-6.20;100.00
12475;BME280;6302;42.624;23.334;2023-02-10T02:49:03;94801.69;;;-6.18;100.00
12475;BME280;6302;42.624;23.334;2023-02-10T02:51:44;94799.59;;;-6.21;100.00
12475;BME280;6302;42.624;23.334;2023-02-10T02:54:21;94795.19;;;-6.25;100.00
12475;BME280;6302;42.624;23.334;2023-02-10T02:56:55;94798.78;;;-6.26;100.00
12475;BME280;6302;42.624;23.334;2023-02-10T02:59:30;94795.97;;;-6.25;100.00
12475;BME280;6302;42.624;23.334;2023-02-10T03:02:02;94789.22;;;-6.31;100.00
12475;BME280;6302;42.624;23.334;2023-02-10T03:04:33;94795.44;;;-6.27;100.00
12475;BME280;6302;42.624;23.334;2023-02-10T03:07:01;94796.22;;;-6.26;100.00
12475;BME280;6302;42.624;23.334;2023-02-10T03:09:29;94785.66;;;-6.25;100.00
12475;BME280;6302;42.624;23.334;2023-02-10T03:11:56;94791.56;;;-6.24;100.00
12475;BME280;6302;42.624;23.334;2023-02-10T03:14:25;94792.09;;;-6.27;100.00
12475;BME280;6302;42.624;23.334;2023-02-10T03:16:52;94796.47;;;-6.28;100.00
12475;BME280;6302;42.624;23.334;2023-02-10T03:19:19;94791.03;;;-6.31;100.00
12475;BME280;6302;42.624;23.334;2023-02-10T03:21:47;94799.03;;;-6.33;100.00
12475;BME280;6302;42.624;23.334;2023-02-10T03:24:14;94804.66;;;-6.36;100.00
12475;BME280;6302;42.624;23.334;2023-02-10T03:26:42;94802.84;;;-6.40;100.00
12475;BME280;6302;42.624;23.334;2023-02-10T03:29:10;94804.91;;;-6.42;100.00
12475;BME280;6302;42.624;23.334;2023-02-10T03:31:37;94786.53;;;-6.51;100.00
12475;BME280;6302;42.624;23.334;2023-02-10T03:34:04;94810.28;;;-6.44;100.00
12475;BME280;6302;42.624;23.334;2023-02-10T03:36:30;94798.19;;;-6.43;100.00
12475;BME280;6302;42.624;23.334;2023-02-10T03:39:00;94801.81;;;-6.44;100.00
12475;BME280;6302;42.624;23.334;2023-02-10T03:41:27;94789.13;;;-6.46;100.00
12475;BME280;6302;42.624;23.334;2023-02-10T03:43:54;94793.25;;;-6.50;100.00
12475;BME280;6302;42.624;23.334;2023-02-10T03:46:21;94779.84;;;-6.52;100.00
12475;BME280;6302;42.624;23.334;2023-02-10T03:48:48;94779.31;;;-6.49;100.00
12475;BME280;6302;42.624;23.334;2023-02-10T03:51:15;94775.19;;;-6.50;100.00
12475;BME280;6302;42.624;23.334;2023-02-10T03:53:41;94776.47;;;-6.52;100.00
12475;BME280;6302;42.624;23.334;2023-02-10T03:56:10;94773.59;;;-6.56;100.00
12475;BME280;6302;42.624;23.334;2023-02-10T03:58:37;94777.22;;;-6.57;100.00
12475;BME280;6302;42.624;23.334;2023-02-10T04:01:12;94782.38;;;-6.57;100.00
12475;BME280;6302;42.624;23.334;2023-02-10T04:03:39;94780.28;;;-6.60;100.00
12475;BME280;6302;42.624;23.334;2023-02-10T04:06:07;94780.53;;;-6.67;100.00
12475;BME280;6302;42.624;23.334;2023-02-10T04:08:34;94779.75;;;-6.67;100.00
12475;BME280;6302;42.624;23.334;2023-02-10T04:11:01;94775.59;;;-6.68;100.00
12475;BME280;6302;42.624;23.334;2023-02-10T04:13:30;94763.72;;;-6.74;100.00
12475;BME280;6302;42.624;23.334;2023-02-10T04:16:01;94771.19;;;-6.73;100.00
12475;BME280;6302;42.624;23.334;2023-02-10T04:18:28;94769.88;;;-6.75;100.00
12475;BME280;6302;42.624;23.334;2023-02-10T04:20:55;94778.41;;;-6.75;100.00
12475;BME280;6302;42.624;23.334;2023-02-10T04:23:22;94777.28;;;-6.84;100.00
12475;BME280;6302;42.624;23.334;2023-02-10T04:25:49;94776.00;;;-6.86;100.00
12475;BME280;6302;42.624;23.334;2023-02-10T04:28:16;94776.53;;;-6.84;100.00
12475;BME280;6302;42.624;23.334;2023-02-10T04:30:44;94771.88;;;-6.87;100.00
12475;BME280;6302;42.624;23.334;2023-02-10T04:33:11;94770.81;;;-6.91;100.00
12475;BME280;6302;42.624;23.334;2023-02-10T04:35:38;94774.41;;;-6.92;100.00
12475;BME280;6302;42.624;23.334;2023-02-10T04:38:05;94778.53;;;-6.96;100.00
12475;BME280;6302;42.624;23.334;2023-02-10T04:40:31;94782.38;;;-6.99;100.00
12475;BME280;6302;42.624;23.334;2023-02-10T04:42:58;94777.94;;;-7.03;100.00
12475;BME280;6302;42.624;23.334;2023-02-10T04:45:25;94775.91;;;-7.01;100.00
12475;BME280;6302;42.624;23.334;2023-02-10T04:47:54;94781.53;;;-7.04;100.00
12475;BME280;6302;42.624;23.334;2023-02-10T04:50:20;94786.69;;;-7.04;100.00
12475;BME280;6302;42.624;23.334;2023-02-10T04:52:48;94787.72;;;-7.05;100.00
12475;BME280;6302;42.624;23.334;2023-02-10T04:55:15;94792.34;;;-7.07;100.00
12475;BME280;6302;42.624;23.334;2023-02-10T04:57:41;94789.22;;;-7.09;100.00
12475;BME280;6302;42.624;23.334;2023-02-10T05:00:09;94788.19;;;-7.13;100.00
12475;BME280;6302;42.624;23.334;2023-02-10T05:02:36;94777.31;;;-7.15;100.00
12475;BME280;6302;42.624;23.334;2023-02-10T05:05:05;94783.78;;;-7.13;100.00
12475;BME280;6302;42.624;23.334;2023-02-10T05:07:32;94744.44;;;-7.35;100.00
12475;BME280;6302;42.624;23.334;2023-02-10T05:09:59;94793.06;;;-7.12;100.00
12475;BME280;6302;42.624;23.334;2023-02-10T05:12:25;94793.03;;;-7.17;100.00
12475;BME280;6302;42.624;23.334;2023-02-10T05:14:52;94801.28;;;-7.15;100.00
12475;BME280;6302;42.624;23.334;2023-02-10T05:17:19;94798.97;;;-7.16;100.00
12475;BME280;6302;42.624;23.334;2023-02-10T05:19:46;94806.41;;;-7.20;100.00
12475;BME280;6302;42.624;23.334;2023-02-10T05:22:14;94807.72;;;-7.17;100.00
12475;BME280;6302;42.624;23.334;2023-02-10T05:24:41;94819.81;;;-7.18;100.00
12475;BME280;6302;42.624;23.334;2023-02-10T05:27:08;94818.50;;;-7.20;100.00
12475;BME280;6302;42.624;23.334;2023-02-10T05:29:35;94829.56;;;-7.20;100.00
12475;BME280;6302;42.624;23.334;2023-02-10T05:32:01;94823.38;;;-7.24;100.00
12475;BME280;6302;42.624;23.334;2023-02-10T05:34:29;94832.88;;;-7.24;100.00
12475;BME280;6302;42.624;23.334;2023-02-10T05:36:55;94833.66;;;-7.24;100.00
12475;BME280;6302;42.624;23.334;2023-02-10T05:39:24;94832.16;;;-7.20;100.00
12475;BME280;6302;42.624;23.334;2023-02-10T05:41:53;94839.41;;;-7.17;100.00
12475;BME280;6302;42.624;23.334;2023-02-10T05:44:24;94842.75;;;-7.16;100.00
12475;BME280;6302;42.624;23.334;2023-02-10T05:46:55;94849.69;;;-7.17;100.00
12475;BME280;6302;42.624;23.334;2023-02-10T05:49:22;94851.06;;;-7.09;100.00
12475;BME280;6302;42.624;23.334;2023-02-10T05:51:49;94848.75;;;-7.06;100.00
12475;BME280;6302;42.624;23.334;2023-02-10T05:54:16;94856.00;;;-7.03;100.00
12475;BME280;6302;42.624;23.334;2023-02-10T05:56:48;94850.63;;;-7.01;100.00
12475;BME280;6302;42.624;23.334;2023-02-10T05:59:15;94842.34;;;-7.03;100.00
12475;BME280;6302;42.624;23.334;2023-02-10T06:01:42;94852.69;;;-6.98;100.00
12475;BME280;6302;42.624;23.334;2023-02-10T06:04:09;94852.78;;;-6.88;100.00
12475;BME280;6302;42.624;23.334;2023-02-10T06:06:36;94848.72;;;-6.84;100.00
12475;BME280;6302;42.624;23.334;2023-02-10T06:09:03;94858.81;;;-6.78;100.00
12475;BME280;6302;42.624;23.334;2023-02-10T06:11:30;94861.94;;;-6.71;100.00
12475;BME280;6302;42.624;23.334;2023-02-10T06:13:59;94871.81;;;-6.63;100.00
12475;BME280;6302;42.624;23.334;2023-02-10T06:16:26;94872.06;;;-6.59;100.00
12475;BME280;6302;42.624;23.334;2023-02-10T06:18:53;94872.66;;;-6.52;100.00
12475;BME280;6302;42.624;23.334;2023-02-10T06:21:20;94873.72;;;-6.48;100.00
12475;BME280;6302;42.624;23.334;2023-02-10T06:23:48;94874.81;;;-6.39;100.00
12475;BME280;6302;42.624;23.334;2023-02-10T06:26:15;94869.19;;;-6.31;100.00
12475;BME280;6302;42.624;23.334;2023-02-10T06:28:42;94869.25;;;-6.21;100.00
12475;BME280;6302;42.624;23.334;2023-02-10T06:31:10;94849.53;;;-6.37;100.00
12475;BME280;6302;42.624;23.334;2023-02-10T06:33:37;94876.03;;;-6.05;100.00
12475;BME280;6302;42.624;23.334;2023-02-10T06:36:06;94868.09;;;-5.98;100.00
12475;BME280;6302;42.624;23.334;2023-02-10T06:38:33;94870.47;;;-5.81;100.00
12475;BME280;6302;42.624;23.334;2023-02-10T06:41:00;94874.59;;;-5.90;100.00
12475;BME280;6302;42.624;23.334;2023-02-10T06:43:27;94879.75;;;-5.90;100.00
12475;BME280;6302;42.624;23.334;2023-02-10T06:45:53;94878.19;;;-5.91;100.00
12475;BME280;6302;42.624;23.334;2023-02-10T06:48:22;94882.34;;;-5.80;100.00
12475;BME280;6302;42.624;23.334;2023-02-10T06:50:49;94883.91;;;-5.74;100.00
12475;BME280;6302;42.624;23.334;2023-02-10T06:53:15;94881.59;;;-5.76;100.00
12475;BME280;6302;42.624;23.334;2023-02-10T06:55:42;94884.97;;;-5.75;100.00
12475;BME280;6302;42.624;23.334;2023-02-10T06:58:09;94894.75;;;-5.72;100.00
12475;BME280;6302;42.624;23.334;2023-02-10T07:00:36;94897.94;;;-5.55;100.00
12475;BME280;6302;42.624;23.334;2023-02-10T07:03:03;94896.91;;;-5.59;100.00
12475;BME280;6302;42.624;23.334;2023-02-10T07:05:31;94891.78;;;-5.49;100.00
12475;BME280;6302;42.624;23.334;2023-02-10T07:08:01;94897.78;;;-5.34;100.00
12475;BME280;6302;42.624;23.334;2023-02-10T07:10:29;94894.16;;;-5.28;100.00
12475;BME280;6302;42.624;23.334;2023-02-10T07:12:55;94896.75;;;-5.22;100.00
12475;BME280;6302;42.624;23.334;2023-02-10T07:15:22;94897.06;;;-5.09;100.00
12475;BME280;6302;42.624;23.334;2023-02-10T07:17:49;94887.25;;;-5.02;100.00
12475;BME280;6302;42.624;23.334;2023-02-10T07:20:17;94887.50;;;-4.98;100.00
12475;BME280;6302;42.624;23.334;2023-02-10T07:22:46;94886.75;;;-4.89;100.00
12475;BME280;6302;42.624;23.334;2023-02-10T07:25:13;94878.47;;;-4.86;100.00
12475;BME280;6302;42.624;23.334;2023-02-10T07:27:40;94886.22;;;-4.86;100.00
12475;BME280;6302;42.624;23.334;2023-02-10T07:30:07;94884.16;;;-4.74;100.00
12475;BME280;6302;42.624;23.334;2023-02-10T07:32:34;94886.25;;;-4.71;100.00
12475;BME280;6302;42.624;23.334;2023-02-10T07:35:01;94888.84;;;-4.55;100.00
12475;BME280;6302;42.624;23.334;2023-02-10T07:37:28;94888.84;;;-4.45;100.00
12475;BME280;6302;42.624;23.334;2023-02-10T07:39:58;94883.41;;;-4.54;100.00
12475;BME280;6302;42.624;23.334;2023-02-10T07:42:25;94882.13;;;-4.51;100.00
12475;BME280;6302;42.624;23.334;2023-02-10T07:44:52;94881.09;;;-4.45;100.00
12475;BME280;6302;42.624;23.334;2023-02-10T07:47:19;94882.09;;;-4.41;100.00
12475;BME280;6302;42.624;23.334;2023-02-10T07:49:45;94878.50;;;-4.35;100.00
12475;BME280;6302;42.624;23.334;2023-02-10T07:52:12;94878.22;;;-4.24;100.00
12475;BME280;6302;42.624;23.334;2023-02-10T07:54:39;94878.50;;;-4.25;100.00
12475;BME280;6302;42.624;23.334;2023-02-10T07:57:07;94889.88;;;-4.26;100.00
12475;BME280;6302;42.624;23.334;2023-02-10T07:59:34;94883.66;;;-4.25;100.00
12475;BME280;6302;42.624;23.334;2023-02-10T08:02:01;94893.75;;;-4.24;100.00
12475;BME280;6302;42.624;23.334;2023-02-10T08:04:30;94903.81;;;-4.12;100.00
12475;BME280;6302;42.624;23.334;2023-02-10T08:06:57;94903.31;;;-4.24;100.00
12475;BME280;6302;42.624;23.334;2023-02-10T08:09:23;94900.22;;;-4.11;100.00
12475;BME280;6302;42.624;23.334;2023-02-10T08:11:51;94899.41;;;-4.07;100.00
12475;BME280;6302;42.624;23.334;2023-02-10T08:14:19;94898.38;;;-3.90;99.77
12475;BME280;6302;42.624;23.334;2023-02-10T08:16:46;94889.56;;;-4.00;100.00
12475;BME280;6302;42.624;23.334;2023-02-10T08:19:12;94890.63;;;-4.01;98.96
12475;BME280;6302;42.624;23.334;2023-02-10T08:21:39;94889.81;;;-3.86;98.91
12475;BME280;6302;42.624;23.334;2023-02-10T08:24:07;94889.00;;;-3.81;97.18
12475;BME280;6302;42.624;23.334;2023-02-10T08:26:34;94900.16;;;-3.76;96.83
12475;BME280;6302;42.624;23.334;2023-02-10T08:29:01;94902.75;;;-3.81;96.71
12475;BME280;6302;42.624;23.334;2023-02-10T08:31:29;94899.09;;;-3.75;96.86
12475;BME280;6302;42.624;23.334;2023-02-10T08:33:57;94897.78;;;-3.67;97.03
12475;BME280;6302;42.624;23.334;2023-02-10T08:36:24;94898.00;;;-3.54;94.57
12475;BME280;6302;42.624;23.334;2023-02-10T08:38:51;94896.13;;;-3.38;93.65
12475;BME280;6302;42.624;23.334;2023-02-10T08:41:18;94898.69;;;-3.33;92.19
12475;BME280;6302;42.624;23.334;2023-02-10T08:43:45;94896.53;;;-3.16;91.59
12475;BME280;6302;42.624;23.334;2023-02-10T08:46:13;94887.72;;;-3.15;91.14
12475;BME280;6302;42.624;23.334;2023-02-10T08:48:41;94901.22;;;-3.18;92.34
12475;BME280;6302;42.624;23.334;2023-02-10T08:51:10;94892.81;;;-3.00;91.87
12475;BME280;6302;42.624;23.334;2023-02-10T08:53:37;94899.47;;;-2.84;90.02
12475;BME280;6302;42.624;23.334;2023-02-10T08:56:06;94896.66;;;-2.87;89.32
12475;BME280;6302;42.624;23.334;2023-02-10T08:58:34;94896.66;;;-2.87;89.11
12475;BME280;6302;42.624;23.334;2023-02-10T09:01:02;94889.09;;;-2.84;87.76
12475;BME280;6302;42.624;23.334;2023-02-10T09:03:33;94901.41;;;-2.60;85.61
12475;BME280;6302;42.624;23.334;2023-02-10T09:06:02;94893.03;;;-2.52;85.08
12475;BME280;6302;42.624;23.334;2023-02-10T09:08:28;94888.63;;;-2.52;85.39
12475;BME280;6302;42.624;23.334;2023-02-10T09:10:55;94887.78;;;-2.42;85.62
12475;BME280;6302;42.624;23.334;2023-02-10T09:13:23;94882.91;;;-2.20;84.49
12475;BME280;6302;42.624;23.334;2023-02-10T09:15:50;94884.03;;;-1.98;83.27
12475;BME280;6302;42.624;23.334;2023-02-10T09:18:17;94881.72;;;-2.04;81.97
12475;BME280;6302;42.624;23.334;2023-02-10T09:20:44;94885.34;;;-2.00;82.73
12475;BME280;6302;42.624;23.334;2023-02-10T09:23:13;94879.75;;;-1.88;83.08
12475;BME280;6302;42.624;23.334;2023-02-10T09:25:40;94888.00;;;-1.81;81.99
12475;BME280;6302;42.624;23.334;2023-02-10T09:28:06;94877.28;;;-1.75;82.76
12475;BME280;6302;42.624;23.334;2023-02-10T09:30:34;94879.41;;;-1.53;80.30
12475;BME280;6302;42.624;23.334;2023-02-10T09:33:01;94874.75;;;-1.56;79.81
12475;BME280;6302;42.624;23.334;2023-02-10T09:35:28;94885.59;;;-1.49;80.05
12475;BME280;6302;42.624;23.334;2023-02-10T09:37:54;94883.28;;;-1.32;79.46
12475;BME280;6302;42.624;23.334;2023-02-10T09:40:26;94874.81;;;-1.19;78.57
12475;BME280;6302;42.624;23.334;2023-02-10T09:43:06;94871.94;;;-1.17;77.13
12475;BME280;6302;42.624;23.334;2023-02-10T09:45:38;94865.94;;;-1.18;77.79
12475;BME280;6302;42.624;23.334;2023-02-10T09:48:25;94869.44;;;-1.04;75.53
12475;BME280;6302;42.624;23.334;2023-02-10T09:51:01;94874.09;;;-1.06;75.61
12475;BME280;6302;42.624;23.334;2023-02-10T09:53:31;94873.97;;;-0.96;75.36
12475;BME280;6302;42.624;23.334;2023-02-10T09:56:02;94865.91;;;-0.94;75.41
12475;BME280;6302;42.624;23.334;2023-02-10T09:58:32;94859.38;;;-0.92;73.74
12475;BME280;6302;42.624;23.334;2023-02-10T10:01:04;94859.66;;;-0.75;74.09
12475;BME280;6302;42.624;23.334;2023-02-10T10:03:41;94860.28;;;-0.83;73.30
12475;BME280;6302;42.624;23.334;2023-02-10T10:06:22;94857.31;;;-0.57;73.73
12475;BME280;6302;42.624;23.334;2023-02-10T10:09:03;94851.69;;;-0.32;70.48
12475;BME280;6302;42.624;23.334;2023-02-10T10:11:40;94843.59;;;-0.31;70.80
12475;BME280;6302;42.624;23.334;2023-02-10T10:14:16;94838.22;;;-0.21;69.95
12475;BME280;6302;42.624;23.334;2023-02-10T10:19:45;94832.84;;;-0.11;67.19
12475;BME280;6302;42.624;23.334;2023-02-10T10:22:25;94837.56;;;0.01;67.17
12475;BME280;6302;42.624;23.334;2023-02-10T10:25:11;94833.81;;;0.07;66.16
12475;BME280;6302;42.624;23.334;2023-02-10T10:27:54;94829.88;;;0.23;65.56
12475;BME280;6302;42.624;23.334;2023-02-10T10:30:29;94826.28;;;0.33;62.80
12475;BME280;6302;42.624;23.334;2023-02-10T10:33:03;94822.13;;;0.18;63.16
12475;BME280;6302;42.624;23.334;2023-02-10T10:35:35;94820.88;;;0.16;62.96
12475;BME280;6302;42.624;23.334;2023-02-10T10:38:10;94825.50;;;0.32;61.59
12475;BME280;6302;42.624;23.334;2023-02-10T10:40:39;94817.03;;;0.27;62.22
12475;BME280;6302;42.624;23.334;2023-02-10T10:43:13;94812.97;;;0.34;61.94
12475;BME280;6302;42.624;23.334;2023-02-10T10:45:47;94821.25;;;0.50;59.96
12475;BME280;6302;42.624;23.334;2023-02-10T10:48:18;94819.50;;;0.73;60.80
12475;BME280;6302;42.624;23.334;2023-02-10T10:50:49;94809.72;;;0.78;58.49
12475;BME280;6302;42.624;23.334;2023-02-10T10:53:18;94820.84;;;0.84;56.91
12475;BME280;6302;42.624;23.334;2023-02-10T10:55:48;94816.47;;;0.93;56.95
12475;BME280;6302;42.624;23.334;2023-02-10T10:58:23;94806.81;;;0.93;58.84
12475;BME280;6302;42.624;23.334;2023-02-10T11:00:53;94800.00;;;1.28;59.60
12475;BME280;6302;42.624;23.334;2023-02-10T11:03:21;94801.19;;;1.66;57.83
12475;BME280;6302;42.624;23.334;2023-02-10T11:05:58;94789.91;;;1.57;55.91
12475;BME280;6302;42.624;23.334;2023-02-10T11:08:28;94795.78;;;1.63;55.20
12475;BME280;6302;42.624;23.334;2023-02-10T11:10:58;94794.44;;;1.65;55.28
12475;BME280;6302;42.624;23.334;2023-02-10T11:13:29;94788.22;;;1.61;56.00
12475;BME280;6302;42.624;23.334;2023-02-10T11:16:00;94783.34;;;1.68;56.77
12475;BME280;6302;42.624;23.334;2023-02-10T11:18:28;94779.75;;;1.86;56.43
12475;BME280;6302;42.624;23.334;2023-02-10T11:20:57;94779.84;;;2.04;55.77
12475;BME280;6302;42.624;23.334;2023-02-10T11:23:25;94787.88;;;2.07;55.30
12475;BME280;6302;42.624;23.334;2023-02-10T11:26:01;94774.47;;;2.09;54.63
12475;BME280;6302;42.624;23.334;2023-02-10T11:28:31;94769.72;;;2.11;55.19
12475;BME280;6302;42.624;23.334;2023-02-10T11:31:01;94767.69;;;2.08;55.42
12475;BME280;6302;42.624;23.334;2023-02-10T11:33:30;94760.88;;;1.98;56.09
12475;BME280;6302;42.624;23.334;2023-02-10T11:36:01;94763.88;;;2.14;56.36
12475;BME280;6302;42.624;23.334;2023-02-10T11:38:28;94764.53;;;2.28;55.73
12475;BME280;6302;42.624;23.334;2023-02-10T11:40:57;94763.94;;;2.31;56.08
12475;BME280;6302;42.624;23.334;2023-02-10T11:43:28;94758.69;;;2.31;56.31
12475;BME280;6302;42.624;23.334;2023-02-10T11:45:59;94770.72;;;2.32;56.87
12475;BME280;6302;42.624;23.334;2023-02-10T11:48:28;94757.78;;;2.27;55.61
12475;BME280;6302;42.624;23.334;2023-02-10T11:51:04;94763.31;;;2.34;56.24
12475;BME280;6302;42.624;23.334;2023-02-10T11:53:33;94756.25;;;2.43;56.61
12475;BME280;6302;42.624;23.334;2023-02-10T11:56:03;94748.41;;;2.43;56.17
12475;BME280;6302;42.624;23.334;2023-02-10T11:58:44;94751.81;;;2.43;53.84
12475;BME280;6302;42.624;23.334;2023-02-10T12:01:33;94746.88;;;2.50;54.35
12475;BME280;6302;42.624;23.334;2023-02-10T12:04:17;94748.31;;;2.65;53.60
12475;BME280;6302;42.624;23.334;2023-02-10T12:06:58;94741.22;;;2.74;54.49
12475;BME280;6302;42.624;23.334;2023-02-10T12:09:31;94742.78;;;2.92;53.10
12475;BME280;6302;42.624;23.334;2023-02-10T12:12:06;94741.38;;;2.95;52.91
12475;BME280;6302;42.624;23.334;2023-02-10T12:14:45;94736.31;;;2.98;52.86
12475;BME280;6302;42.624;23.334;2023-02-10T12:17:25;94732.16;;;2.80;52.95
12475;BME280;6302;42.624;23.334;2023-02-10T12:20:05;94727.97;;;2.62;52.91
12475;BME280;6302;42.624;23.334;2023-02-10T12:22:47;94730.00;;;2.74;53.15
12475;BME280;6302;42.624;23.334;2023-02-10T12:25:20;94728.59;;;2.59;52.43
12475;BME280;6302;42.624;23.334;2023-02-10T12:27:57;94725.50;;;2.57;52.43
12475;BME280;6302;42.624;23.334;2023-02-10T12:30:34;94722.75;;;2.79;52.40
12475;BME280;6302;42.624;23.334;2023-02-10T12:36:14;94715.69;;;2.71;51.47
12475;BME280;6302;42.624;23.334;2023-02-10T12:38:52;94722.59;;;2.58;51.76
12475;BME280;6302;42.624;23.334;2023-02-10T12:41:29;94711.19;;;2.72;51.67
12475;BME280;6302;42.624;23.334;2023-02-10T12:44:15;94712.75;;;2.73;51.16
12475;BME280;6302;42.624;23.334;2023-02-10T12:46:55;94707.03;;;2.79;51.52
12475;BME280;6302;42.624;23.334;2023-02-10T12:49:33;94707.66;;;2.76;51.89
12475;BME280;6302;42.624;23.334;2023-02-10T12:52:06;94658.56;;;2.56;51.86
12475;BME280;6302;42.624;23.334;2023-02-10T12:54:40;94711.81;;;2.86;51.14
12475;BME280;6302;42.624;23.334;2023-02-10T12:57:14;94706.13;;;2.92;51.61
12475;BME280;6302;42.624;23.334;2023-02-10T12:59:49;94715.97;;;2.95;51.77
12475;BME280;6302;42.624;23.334;2023-02-10T13:02:20;94717.19;;;2.89;50.69
12475;BME280;6302;42.624;23.334;2023-02-10T13:04:52;94712.59;;;3.03;49.64
12475;BME280;6302;42.624;23.334;2023-02-10T13:07:32;94711.81;;;3.03;49.93
12475;BME280;6302;42.624;23.334;2023-02-10T13:10:13;94713.81;;;3.14;49.61
12475;BME280;6302;42.624;23.334;2023-02-10T13:12:45;94710.53;;;3.26;49.75
12475;BME280;6302;42.624;23.334;2023-02-10T13:15:15;94704.56;;;3.25;48.78
12475;BME280;6302;42.624;23.334;2023-02-10T13:17:46;94711.03;;;3.19;48.89
12475;BME280;6302;42.624;23.334;2023-02-10T13:20:24;94709.34;;;3.06;49.21
12475;BME280;6302;42.624;23.334;2023-02-10T13:23:01;94711.19;;;2.97;49.20